createdAt,value
2023-02-26T15:08:53.965Z,5.51
2023-02-26T15:11:48.819Z,5.60
2023-02-26T15:14:21.640Z,5.57
2023-02-26T15:16:59.560Z,5.58
2023-02-26T15:19:41.052Z,5.58
2023-02-26T15:22:12.324Z,5.56
2023-02-26T15:24:40.859Z,5.56
2023-02-26T15:27:11.647Z,5.55
2023-02-26T15:29:42.140Z,5.55
2023-02-26T15:32:26.029Z,5.57
2023-02-26T15:34:58.417Z,5.57
2023-02-26T15:37:28.468Z,5.55
2023-02-26T15:39:56.863Z,5.55
2023-02-26T15:42:32.409Z,5.53
2023-02-26T15:45:01.916Z,5.50
2023-02-26T15:47:30.501Z,5.47
2023-02-26T15:49:59.572Z,5.47
2023-02-26T15:52:27.956Z,5.50
2023-02-26T15:55:01.446Z,5.48
2023-02-26T15:57:30.333Z,5.47
2023-02-26T16:00:08.338Z,5.46
2023-02-26T16:02:42.671Z,5.43
2023-02-26T16:05:14.747Z,5.42
2023-02-26T16:07:43.222Z,5.42
2023-02-26T16:10:28.413Z,5.38
2023-02-26T16:12:56.789Z,5.34
2023-02-26T16:15:37.319Z,5.27
2023-02-26T16:18:10.816Z,5.18
2023-02-26T16:20:42.136Z,5.10
2023-02-26T16:23:18.293Z,5.07
2023-02-26T16:25:49.468Z,5.05
2023-02-26T16:28:45.979Z,5.04
2023-02-26T16:31:25.769Z,5.02
2023-02-26T16:34:01.563Z,5.00
2023-02-26T16:36:41.027Z,5.02
2023-02-26T16:39:44.404Z,5.01
2023-02-26T16:42:21.315Z,4.99
2023-02-26T16:45:02.939Z,5.00
2023-02-26T16:47:33.445Z,5.01
2023-02-26T16:50:02.328Z,5.02
2023-02-26T16:52:31.723Z,5.05
2023-02-26T16:55:02.890Z,5.07
2023-02-26T16:57:40.065Z,5.08
2023-02-26T17:00:17.736Z,5.09
2023-02-26T17:02:47.890Z,5.07
2023-02-26T17:05:25.252Z,5.06
2023-02-26T17:08:15.960Z,5.06
2023-02-26T17:10:47.579Z,5.00
2023-02-26T17:13:19.052Z,4.96
2023-02-26T17:15:47.968Z,4.92
2023-02-26T17:18:19.141Z,4.90
2023-02-26T17:20:47.787Z,4.87
2023-02-26T17:23:19.754Z,4.86
2023-02-26T17:25:50.432Z,4.83
2023-02-26T17:28:27.581Z,4.79
2023-02-26T17:30:56.388Z,4.77
2023-02-26T17:33:25.346Z,4.74
2023-02-26T17:35:56.810Z,4.71
2023-02-26T17:38:25.638Z,4.69
2023-02-26T17:40:58.469Z,4.66
2023-02-26T17:43:29.031Z,4.61
2023-02-26T17:45:57.489Z,4.59
2023-02-26T17:48:25.968Z,4.56
2023-02-26T17:50:55.580Z,4.56
2023-02-26T17:53:27.590Z,4.55
2023-02-26T17:55:56.763Z,4.55
2023-02-26T17:58:30.861Z,4.56
2023-02-26T18:00:59.970Z,4.61
2023-02-26T18:03:28.508Z,4.67
2023-02-26T18:05:57.699Z,4.73
2023-02-26T18:08:28.638Z,4.77
2023-02-26T18:10:57.842Z,4.79
2023-02-26T18:13:27.469Z,4.81
2023-02-26T18:16:02.996Z,4.83
2023-02-26T18:18:33.707Z,4.83
2023-02-26T18:21:02.382Z,4.82
2023-02-26T18:23:33.041Z,4.80
2023-02-26T18:26:03.150Z,4.78
2023-02-26T18:28:32.444Z,4.76
2023-02-26T18:31:02.924Z,4.73
2023-02-26T18:33:34.301Z,4.71
2023-02-26T18:36:03.061Z,4.71
2023-02-26T18:38:31.856Z,4.71
2023-02-26T18:41:02.591Z,4.68
2023-02-26T18:43:31.675Z,4.67
2023-02-26T18:46:02.652Z,4.67
2023-02-26T18:48:31.501Z,4.67
2023-02-26T18:51:03.072Z,4.63
2023-02-26T18:53:34.300Z,4.57
2023-02-26T18:56:03.397Z,4.55
2023-02-26T18:58:32.549Z,4.54
2023-02-26T19:01:05.082Z,4.47
2023-02-26T19:03:33.979Z,4.40
2023-02-26T19:06:04.602Z,4.37
2023-02-26T19:08:36.506Z,4.33
2023-02-26T19:11:05.182Z,4.31
2023-02-26T19:13:38.274Z,4.33
2023-02-26T19:16:06.945Z,4.35
2023-02-26T19:18:35.618Z,4.37
2023-02-26T19:21:06.234Z,4.39
2023-02-26T19:23:37.490Z,4.45
2023-02-26T19:26:06.163Z,4.51
2023-02-26T19:28:35.098Z,4.53
2023-02-26T19:31:07.113Z,4.53
2023-02-26T19:33:36.316Z,4.54
2023-02-26T19:36:07.160Z,4.54
2023-02-26T19:38:37.994Z,4.55
2023-02-26T19:41:06.472Z,4.53
2023-02-26T19:43:35.384Z,4.51
2023-02-26T19:46:04.762Z,4.50
2023-02-26T19:48:34.856Z,4.50
2023-02-26T19:51:05.012Z,4.48
2023-02-26T19:53:34.932Z,4.45
2023-02-26T19:56:05.962Z,4.38
2023-02-26T19:58:36.804Z,4.34
2023-02-26T20:01:05.836Z,4.32
2023-02-26T20:03:36.934Z,4.29
2023-02-26T20:06:08.607Z,4.28
2023-02-26T20:08:36.903Z,4.26
2023-02-26T20:11:05.472Z,4.18
2023-02-26T20:13:35.385Z,4.10
2023-02-26T20:16:05.874Z,4.06
2023-02-26T20:18:35.223Z,4.05
2023-02-26T20:21:08.993Z,4.05
2023-02-26T20:23:39.380Z,4.01
2023-02-26T20:26:10.268Z,3.98
2023-02-26T20:28:39.038Z,3.92
2023-02-26T20:31:08.230Z,3.87
2023-02-26T20:33:38.523Z,3.85
2023-02-26T20:36:08.396Z,3.85
2023-02-26T20:38:36.912Z,3.86
2023-02-26T20:41:05.791Z,3.87
2023-02-26T20:43:34.679Z,3.90
2023-02-26T20:46:07.461Z,3.89
2023-02-26T20:48:41.815Z,3.91
2023-02-26T20:51:12.316Z,3.94
2023-02-26T20:53:41.063Z,3.94
2023-02-26T20:56:12.331Z,3.90
2023-02-26T20:58:42.445Z,3.89
2023-02-26T21:01:10.842Z,3.89
2023-02-26T21:03:39.594Z,3.90
2023-02-26T21:06:08.700Z,3.92
2023-02-26T21:08:37.339Z,3.91
2023-02-26T21:11:08.397Z,3.93
2023-02-26T21:13:40.380Z,3.89
2023-02-26T21:16:09.402Z,3.86
2023-02-26T21:18:38.060Z,3.83
2023-02-26T21:21:06.889Z,3.82
2023-02-26T21:23:35.646Z,3.78
2023-02-26T21:26:04.577Z,3.76
2023-02-26T21:28:33.725Z,3.78
2023-02-26T21:31:03.249Z,3.82
2023-02-26T21:33:33.766Z,3.79
2023-02-26T21:36:02.325Z,3.72
2023-02-26T21:38:33.848Z,3.64
2023-02-26T21:41:02.583Z,3.60
2023-02-26T21:43:31.064Z,3.57
2023-02-26T21:45:59.954Z,3.53
2023-02-26T21:48:29.498Z,3.49
2023-02-26T21:50:59.969Z,3.45
2023-02-26T21:53:28.702Z,3.41
2023-02-26T21:55:58.099Z,3.38
2023-02-26T21:58:32.606Z,3.37
2023-02-26T22:01:01.488Z,3.34
2023-02-26T22:03:30.096Z,3.32
2023-02-26T22:05:58.785Z,3.30
2023-02-26T22:08:27.200Z,3.29
2023-02-26T22:10:57.559Z,3.29
2023-02-26T22:13:28.861Z,3.28
2023-02-26T22:15:57.326Z,3.30
2023-02-26T22:18:26.415Z,3.32
2023-02-26T22:20:54.909Z,3.32
2023-02-26T22:23:24.599Z,3.32
2023-02-26T22:25:53.256Z,3.32
2023-02-26T22:28:21.871Z,3.33
2023-02-26T22:30:52.107Z,3.35
2023-02-26T22:33:21.430Z,3.38
2023-02-26T22:35:51.837Z,3.36
2023-02-26T22:38:20.204Z,3.36
2023-02-26T22:40:50.968Z,3.39
2023-02-26T22:43:20.441Z,3.40
2023-02-26T22:45:53.744Z,3.40
2023-02-26T22:48:22.829Z,3.41
2023-02-26T22:50:52.087Z,3.43
2023-02-26T22:53:22.048Z,3.43
2023-02-26T22:55:53.599Z,3.42
2023-02-26T22:58:22.594Z,3.41
2023-02-26T23:00:52.861Z,3.39
2023-02-26T23:03:21.911Z,3.35
2023-02-26T23:05:50.614Z,3.35
2023-02-26T23:08:19.182Z,3.33
2023-02-26T23:10:47.624Z,3.35
2023-02-26T23:13:16.143Z,3.35
2023-02-26T23:15:46.727Z,3.36
2023-02-26T23:18:20.273Z,3.39
2023-02-26T23:20:49.754Z,3.42
2023-02-26T23:23:18.669Z,3.41
2023-02-26T23:25:47.387Z,3.44
2023-02-26T23:28:18.548Z,3.47
2023-02-26T23:30:47.148Z,3.48
2023-02-26T23:33:16.100Z,3.50
2023-02-26T23:35:44.667Z,3.49
2023-02-26T23:38:13.652Z,3.47
2023-02-26T23:40:42.539Z,3.46
2023-02-26T23:43:11.737Z,3.44
2023-02-26T23:45:40.799Z,3.43
2023-02-26T23:48:09.620Z,3.44
2023-02-26T23:50:41.224Z,3.44
2023-02-26T23:53:10.276Z,3.42
2023-02-26T23:55:38.770Z,3.41
2023-02-26T23:58:07.958Z,3.41
